createdAt,value
2018-06-30T00:01:24.079Z,98870.48
2018-06-30T00:03:53.738Z,98871.78
2018-06-30T00:06:24.826Z,98873.36
2018-06-30T00:08:55.116Z,98873.92
2018-06-30T00:11:24.848Z,98880.36
2018-06-30T00:13:54.771Z,98880.83
2018-06-30T00:16:24.542Z,98884.61
2018-06-30T00:18:55.766Z,98884.06
2018-06-30T00:21:26.205Z,98878.19
2018-06-30T00:23:55.924Z,98877.73
2018-06-30T00:26:25.688Z,98880.75
2018-06-30T00:28:55.535Z,98875.13
2018-06-30T00:31:24.861Z,98873.08
2018-06-30T00:33:54.439Z,98873.78
2018-06-30T00:36:24.148Z,98876.04
2018-06-30T00:38:53.675Z,98873.92
2018-06-30T00:41:23.727Z,98875.16
2018-06-30T00:43:53.508Z,98875.05
2018-06-30T00:46:22.812Z,98867.95
2018-06-30T00:48:52.387Z,98865.26
2018-06-30T00:51:22.670Z,98860.38
2018-06-30T00:53:52.028Z,98860.60
2018-06-30T00:56:22.093Z,98868.12
2018-06-30T00:58:51.668Z,98871.64
2018-06-30T01:01:21.001Z,98864.98
2018-06-30T01:03:50.384Z,98861.09
2018-06-30T01:06:20.515Z,98870.31
2018-06-30T01:08:49.876Z,98867.66
2018-06-30T01:11:19.454Z,98869.98
2018-06-30T01:13:48.792Z,98873.28
2018-06-30T01:16:18.189Z,98870.47
2018-06-30T01:18:47.933Z,98869.95
2018-06-30T01:21:17.246Z,98874.13
2018-06-30T01:23:46.568Z,98867.03
2018-06-30T01:26:16.143Z,98870.47
2018-06-30T01:28:45.485Z,98868.08
2018-06-30T01:31:14.812Z,98867.59
2018-06-30T01:33:44.179Z,98863.77
2018-06-30T01:36:13.484Z,98862.61
2018-06-30T01:38:42.827Z,98865.00
2018-06-30T01:41:12.153Z,98860.61
2018-06-30T01:43:42.272Z,98861.81
2018-06-30T01:46:11.573Z,98864.01
2018-06-30T01:48:41.235Z,98861.30
2018-06-30T01:51:10.554Z,98862.80
2018-06-30T01:53:39.937Z,98861.62
2018-06-30T01:56:09.364Z,98861.77
2018-06-30T01:58:39.026Z,98859.97
2018-06-30T02:01:08.571Z,98866.84
2018-06-30T02:03:37.932Z,98861.32
2018-06-30T02:06:07.449Z,98864.36
2018-06-30T02:08:36.776Z,98861.99
2018-06-30T02:11:06.604Z,98859.83
2018-06-30T02:13:35.970Z,98865.50
2018-06-30T02:16:05.357Z,98862.16
2018-06-30T02:18:35.387Z,98862.34
2018-06-30T02:21:06.436Z,98863.17
2018-06-30T02:23:35.866Z,98871.26
2018-06-30T02:26:05.622Z,98869.89
2018-06-30T02:28:34.943Z,98866.37
2018-06-30T02:31:04.546Z,98866.55
2018-06-30T02:33:33.877Z,98870.91
2018-06-30T02:36:03.244Z,98868.55
2018-06-30T02:38:32.551Z,98875.25
2018-06-30T02:41:02.512Z,98877.98
2018-06-30T02:43:32.178Z,98876.98
2018-06-30T02:46:02.091Z,98877.83
2018-06-30T02:48:31.524Z,98880.17
2018-06-30T02:51:00.874Z,98877.48
2018-06-30T02:53:30.195Z,98877.78
2018-06-30T02:56:00.215Z,98878.67
2018-06-30T02:58:29.630Z,98882.20
2018-06-30T03:00:59.440Z,98883.70
2018-06-30T03:03:28.772Z,98883.04
2018-06-30T03:05:58.481Z,98883.04
2018-06-30T03:08:28.100Z,98879.17
2018-06-30T03:10:57.713Z,98882.19
2018-06-30T03:13:27.293Z,98882.70
2018-06-30T03:15:56.888Z,98879.50
2018-06-30T03:18:26.237Z,98878.81
2018-06-30T03:20:55.963Z,98880.83
2018-06-30T03:23:26.991Z,98880.13
2018-06-30T03:25:56.672Z,98884.82
2018-06-30T03:28:25.971Z,98881.13
2018-06-30T03:30:56.200Z,98885.03
2018-06-30T03:33:25.514Z,98886.05
2018-06-30T03:35:54.844Z,98885.34
2018-06-30T03:38:24.575Z,98889.88
2018-06-30T03:40:54.193Z,98888.89
2018-06-30T03:43:23.513Z,98891.72
2018-06-30T03:45:54.409Z,98893.75
2018-06-30T03:48:23.809Z,98895.28
2018-06-30T03:50:53.192Z,98896.42
2018-06-30T03:53:22.960Z,98903.83
2018-06-30T03:55:52.312Z,98900.32
2018-06-30T03:58:21.833Z,98894.81
2018-06-30T04:00:51.131Z,98896.64
2018-06-30T04:03:21.112Z,98896.81
2018-06-30T04:05:50.641Z,98898.00
2018-06-30T04:08:20.407Z,98896.28
2018-06-30T04:10:50.099Z,98903.67
2018-06-30T04:13:19.968Z,98904.50
2018-06-30T04:15:50.225Z,98897.88
2018-06-30T04:18:20.335Z,98904.82
2018-06-30T04:20:50.712Z,98906.16
2018-06-30T04:23:20.439Z,98903.96
2018-06-30T04:25:50.729Z,98911.52
2018-06-30T04:28:20.813Z,98909.84
2018-06-30T04:30:50.132Z,98908.41
2018-06-30T04:33:20.470Z,98906.05
2018-06-30T04:35:50.065Z,98911.02
2018-06-30T04:38:20.328Z,98907.12
2018-06-30T04:40:50.521Z,98907.12
2018-06-30T04:43:19.901Z,98910.34
2018-06-30T04:45:49.261Z,98910.34
2018-06-30T04:48:19.483Z,98914.92
2018-06-30T04:50:49.508Z,98916.94
2018-06-30T04:53:18.914Z,98919.13
2018-06-30T04:55:48.404Z,98914.63
2018-06-30T04:58:17.984Z,98917.78
2018-06-30T05:00:48.106Z,98917.02
2018-06-30T05:03:17.815Z,98920.03
2018-06-30T05:05:47.966Z,98916.34
2018-06-30T05:08:17.608Z,98930.45
2018-06-30T05:10:46.929Z,98927.75
2018-06-30T05:13:16.576Z,98937.80
2018-06-30T05:15:45.883Z,98937.85
2018-06-30T05:18:15.217Z,98937.02
2018-06-30T05:20:44.587Z,98938.70
2018-06-30T05:23:13.904Z,98937.67
2018-06-30T05:25:43.269Z,98938.37
2018-06-30T05:28:12.577Z,98941.90
2018-06-30T05:30:41.940Z,98947.63
2018-06-30T05:33:11.239Z,98947.45
2018-06-30T05:35:41.115Z,98948.47
2018-06-30T05:38:10.883Z,98950.81
2018-06-30T05:40:41.302Z,98937.53
2018-06-30T05:43:10.894Z,98942.75
2018-06-30T05:45:40.719Z,98938.38
2018-06-30T05:48:10.270Z,98953.52
2018-06-30T05:50:39.950Z,98957.72
2018-06-30T05:53:09.685Z,98948.28
2018-06-30T05:55:39.058Z,98956.01
2018-06-30T05:58:08.393Z,98957.70
2018-06-30T06:00:37.768Z,98957.20
2018-06-30T06:03:07.899Z,98951.48
2018-06-30T06:05:37.251Z,98955.50
2018-06-30T06:08:06.652Z,98953.48
2018-06-30T06:10:36.035Z,98955.02
2018-06-30T06:13:05.988Z,98953.15
2018-06-30T06:15:35.730Z,98959.38
2018-06-30T06:18:05.480Z,98954.85
2018-06-30T06:20:35.178Z,98957.37
2018-06-30T06:23:04.488Z,98953.97
2018-06-30T06:25:34.452Z,98950.13
2018-06-30T06:28:03.772Z,98959.55
2018-06-30T06:30:33.122Z,98955.17
2018-06-30T06:33:03.380Z,98958.66
2018-06-30T06:35:32.996Z,98954.41
2018-06-30T06:38:02.309Z,98959.63
2018-06-30T06:40:31.651Z,98961.78
2018-06-30T06:43:00.975Z,98957.88
2018-06-30T06:45:31.120Z,98958.57
2018-06-30T06:48:01.387Z,98960.38
2018-06-30T06:50:31.289Z,98959.68
2018-06-30T06:53:01.578Z,98965.22
2018-06-30T06:55:30.899Z,98969.48
2018-06-30T06:58:00.285Z,98966.28
2018-06-30T07:00:30.251Z,98963.18
2018-06-30T07:03:00.141Z,98963.52
2018-06-30T07:05:29.495Z,98963.29
2018-06-30T07:07:58.873Z,98964.34
2018-06-30T07:10:28.196Z,98967.56
2018-06-30T07:12:57.574Z,98956.03
2018-06-30T07:15:26.885Z,98968.83
2018-06-30T07:17:56.280Z,98965.10
2018-06-30T07:20:25.611Z,98966.73
2018-06-30T07:22:55.319Z,98971.58
2018-06-30T07:25:26.100Z,98971.86
2018-06-30T07:27:55.430Z,98979.27
2018-06-30T07:30:25.116Z,98974.92
2018-06-30T07:32:54.478Z,98982.47
2018-06-30T07:35:23.848Z,98978.05
2018-06-30T07:37:53.561Z,98983.30
2018-06-30T07:40:23.168Z,98981.20
2018-06-30T07:42:52.534Z,98971.11
2018-06-30T07:45:26.149Z,98973.39
2018-06-30T07:47:55.819Z,98975.16
2018-06-30T07:50:25.532Z,98979.66
2018-06-30T07:52:55.188Z,98979.94
2018-06-30T07:55:24.703Z,98985.91
2018-06-30T07:57:54.744Z,98986.11
2018-06-30T08:00:24.526Z,98988.11
2018-06-30T08:02:53.902Z,98992.67
2018-06-30T08:05:24.336Z,98994.22
2018-06-30T08:07:53.729Z,98991.40
2018-06-30T08:10:23.082Z,99000.91
2018-06-30T08:12:52.400Z,98995.13
2018-06-30T08:15:22.194Z,98990.48
2018-06-30T08:17:51.796Z,98997.30
2018-06-30T08:20:21.559Z,98989.96
2018-06-30T08:22:50.916Z,98991.19
2018-06-30T08:25:20.827Z,98986.38
2018-06-30T08:27:50.560Z,98993.19
2018-06-30T08:30:19.911Z,98994.47
2018-06-30T08:32:49.479Z,98986.64
2018-06-30T08:35:19.430Z,98986.19
2018-06-30T08:37:49.041Z,98982.08
2018-06-30T08:40:18.388Z,98985.19
2018-06-30T08:42:47.950Z,98990.83
2018-06-30T08:45:17.322Z,98992.64
2018-06-30T08:47:46.695Z,99000.66
2018-06-30T08:50:16.040Z,99000.41
2018-06-30T08:52:46.101Z,98999.31
2018-06-30T08:55:15.733Z,98995.86
2018-06-30T08:57:45.351Z,98995.81
2018-06-30T09:00:14.929Z,98999.88
2018-06-30T09:02:45.475Z,98998.23
2018-06-30T09:05:15.866Z,98994.41
2018-06-30T09:07:45.207Z,98996.69
2018-06-30T09:10:14.922Z,98998.55
2018-06-30T09:12:44.290Z,98984.48
2018-06-30T09:15:13.652Z,98996.33
2018-06-30T09:17:42.984Z,98993.06
2018-06-30T09:20:13.364Z,98988.70
2018-06-30T09:22:42.982Z,98988.95
2018-06-30T09:25:12.346Z,98989.03
2018-06-30T09:27:42.114Z,98983.68
2018-06-30T09:30:11.533Z,98989.27
2018-06-30T09:32:40.846Z,98990.31
2018-06-30T09:35:10.989Z,98988.50
2018-06-30T09:37:40.341Z,98994.46
2018-06-30T09:40:09.724Z,98996.02
2018-06-30T09:42:40.523Z,98994.11
2018-06-30T09:45:09.897Z,98994.36
2018-06-30T09:47:40.073Z,98999.09
2018-06-30T09:50:09.440Z,98996.45
2018-06-30T09:52:38.828Z,98997.78
2018-06-30T09:55:08.460Z,99001.14
2018-06-30T09:57:39.361Z,99003.16
2018-06-30T10:00:09.729Z,98996.08
2018-06-30T10:02:39.498Z,98998.20
2018-06-30T10:05:09.219Z,98993.22
2018-06-30T10:07:39.335Z,98995.14
2018-06-30T10:10:08.696Z,99000.18
2018-06-30T10:12:38.121Z,98996.67
2018-06-30T10:15:07.393Z,98997.94
2018-06-30T10:17:37.208Z,98998.01
2018-06-30T10:20:07.007Z,98987.08
2018-06-30T10:22:36.363Z,98995.46
2018-06-30T10:25:06.412Z,98991.07
2018-06-30T10:27:35.782Z,98992.32
2018-06-30T10:30:05.727Z,98984.29
2018-06-30T10:32:35.411Z,98993.13
2018-06-30T10:35:06.679Z,98983.69
2018-06-30T10:37:36.263Z,98981.44
2018-06-30T10:40:06.039Z,98977.02
2018-06-30T10:42:35.698Z,98968.66
2018-06-30T10:45:05.984Z,98970.83
2018-06-30T10:47:35.432Z,98973.91
2018-06-30T10:50:05.807Z,98966.83
2018-06-30T10:52:35.415Z,98959.94
2018-06-30T10:55:05.154Z,98964.23
2018-06-30T10:57:34.984Z,98956.53
2018-06-30T11:00:04.864Z,98968.95
2018-06-30T11:02:34.250Z,98957.28
2018-06-30T11:05:03.722Z,98967.87
2018-06-30T11:07:33.444Z,98963.41
2018-06-30T11:10:03.200Z,98961.00
2018-06-30T11:12:32.817Z,98957.43
2018-06-30T11:15:02.509Z,98952.67
2018-06-30T11:17:31.867Z,98957.91
2018-06-30T11:20:01.541Z,98954.09
2018-06-30T11:22:31.203Z,98951.80
2018-06-30T11:25:00.822Z,98945.67
2018-06-30T11:27:30.627Z,98950.34
2018-06-30T11:30:00.308Z,98946.22
2018-06-30T11:32:29.621Z,98945.81
2018-06-30T11:34:58.962Z,98940.87
2018-06-30T11:37:28.681Z,98939.34
2018-06-30T11:39:58.021Z,98942.95
2018-06-30T11:42:29.132Z,98936.64
2018-06-30T11:44:58.824Z,98940.52
2018-06-30T11:47:29.100Z,98942.47
2018-06-30T11:49:59.703Z,98945.73
2018-06-30T11:52:29.945Z,98947.27
2018-06-30T11:55:00.719Z,98943.94
2018-06-30T11:57:30.264Z,98948.64
2018-06-30T11:59:59.607Z,98938.46
2018-06-30T12:02:28.943Z,98935.13
2018-06-30T12:04:58.311Z,98932.27
2018-06-30T12:07:27.956Z,98937.05
2018-06-30T12:09:57.324Z,98942.11
2018-06-30T12:12:26.700Z,98944.98
2018-06-30T12:14:56.141Z,98935.17
2018-06-30T12:17:25.522Z,98940.63
2018-06-30T12:19:55.555Z,98935.83
2018-06-30T12:22:25.001Z,98932.80
2018-06-30T12:24:54.472Z,98933.74
2018-06-30T12:27:24.148Z,98929.23
2018-06-30T12:29:53.784Z,98923.97
2018-06-30T12:32:23.372Z,98926.95
2018-06-30T12:34:53.073Z,98929.91
2018-06-30T12:37:22.445Z,98925.73
2018-06-30T12:39:51.837Z,98922.98
2018-06-30T12:42:21.916Z,98924.31
2018-06-30T12:44:51.524Z,98929.61
2018-06-30T12:47:20.832Z,98925.52
2018-06-30T12:49:50.162Z,98930.66
2018-06-30T12:52:20.364Z,98931.16
2018-06-30T12:54:49.740Z,98930.37
2018-06-30T12:57:21.433Z,98924.50
2018-06-30T12:59:51.079Z,98923.95
2018-06-30T13:02:21.019Z,98924.05
2018-06-30T13:04:50.402Z,98922.58
2018-06-30T13:07:20.547Z,98922.58
2018-06-30T13:09:50.480Z,98911.64
2018-06-30T13:12:20.820Z,98900.50
2018-06-30T13:14:50.133Z,98913.80
2018-06-30T13:17:19.498Z,98905.42
2018-06-30T13:19:50.135Z,98900.38
2018-06-30T13:22:20.483Z,98907.50
2018-06-30T13:24:50.699Z,98902.40
2018-06-30T13:27:20.489Z,98900.22
2018-06-30T13:29:49.867Z,98896.31
2018-06-30T13:32:19.803Z,98901.11
2018-06-30T13:34:49.405Z,98896.52
2018-06-30T13:37:18.752Z,98897.94
2018-06-30T13:39:48.431Z,98899.37
2018-06-30T13:42:17.833Z,98902.11
2018-06-30T13:44:47.167Z,98904.59
2018-06-30T13:47:16.922Z,98900.38
2018-06-30T13:49:46.282Z,98897.28
2018-06-30T13:52:17.036Z,98902.18
2018-06-30T13:54:46.613Z,98895.98
2018-06-30T13:57:15.994Z,98904.02
2018-06-30T13:59:46.205Z,98899.39
2018-06-30T14:02:15.591Z,98901.54
2018-06-30T14:04:45.362Z,98896.50
2018-06-30T14:07:14.695Z,98896.66
2018-06-30T14:09:44.056Z,98895.28
2018-06-30T14:12:13.997Z,98894.55
2018-06-30T14:14:43.972Z,98892.75
2018-06-30T14:17:13.520Z,98883.59
2018-06-30T14:19:43.181Z,98890.53
2018-06-30T14:22:13.295Z,98885.05
2018-06-30T14:24:42.914Z,98889.25
2018-06-30T14:27:12.267Z,98886.38
2018-06-30T14:29:41.740Z,98878.17
2018-06-30T14:32:11.108Z,98884.16
2018-06-30T14:34:40.983Z,98880.35
2018-06-30T14:37:10.736Z,98876.26
2018-06-30T14:39:40.051Z,98871.52
2018-06-30T14:42:09.521Z,98869.39
2018-06-30T14:44:39.465Z,98864.58
2018-06-30T14:47:09.505Z,98868.59
2018-06-30T14:49:38.925Z,98863.91
2018-06-30T14:52:08.939Z,98863.95
2018-06-30T14:54:38.941Z,98868.17
2018-06-30T14:57:08.280Z,98860.79
2018-06-30T14:59:37.869Z,98859.42
2018-06-30T15:02:08.438Z,98856.63
2018-06-30T15:04:37.872Z,98858.34
2018-06-30T15:07:07.636Z,98861.85
2018-06-30T15:09:37.005Z,98862.14
2018-06-30T15:12:07.042Z,98866.58
2018-06-30T15:14:37.106Z,98868.30
2018-06-30T15:17:06.942Z,98869.52
2018-06-30T15:19:36.290Z,98861.84
2018-06-30T15:22:05.676Z,98866.75
2018-06-30T15:24:35.817Z,98864.42
2018-06-30T15:27:05.274Z,98858.16
2018-06-30T15:29:34.986Z,98863.39
2018-06-30T15:32:04.973Z,98865.56
2018-06-30T15:34:34.998Z,98856.15
2018-06-30T15:37:04.810Z,98857.92
2018-06-30T15:39:35.570Z,98860.23
2018-06-30T15:42:04.937Z,98863.09
2018-06-30T15:44:35.450Z,98855.16
2018-06-30T15:47:04.868Z,98848.55
2018-06-30T15:49:34.218Z,98862.24
2018-06-30T15:52:03.961Z,98853.50
2018-06-30T15:54:33.894Z,98854.12
2018-06-30T15:57:03.232Z,98845.33
2018-06-30T15:59:32.940Z,98853.98
2018-06-30T16:02:02.302Z,98849.58
2018-06-30T16:04:31.626Z,98853.34
2018-06-30T16:07:02.661Z,98857.21
2018-06-30T16:09:32.430Z,98859.92
2018-06-30T16:12:02.103Z,98854.45
2018-06-30T16:14:31.442Z,98860.61
2018-06-30T16:17:01.580Z,98855.80
2018-06-30T16:19:30.898Z,98866.89
2018-06-30T16:22:00.668Z,98859.80
2018-06-30T16:24:30.535Z,98868.39
2018-06-30T16:26:59.907Z,98861.25
2018-06-30T16:29:30.358Z,98862.84
2018-06-30T16:32:01.125Z,98856.09
2018-06-30T16:34:30.486Z,98851.63
2018-06-30T16:37:01.331Z,98853.99
2018-06-30T16:39:30.672Z,98853.98
2018-06-30T16:42:00.332Z,98855.91
2018-06-30T16:44:29.953Z,98862.94
2018-06-30T16:46:59.693Z,98858.56
2018-06-30T16:49:30.157Z,98855.86
2018-06-30T16:51:59.504Z,98858.16
2018-06-30T16:54:28.864Z,98856.97
2018-06-30T16:56:58.441Z,98850.71
2018-06-30T16:59:28.277Z,98860.97
2018-06-30T17:01:58.081Z,98867.27
2018-06-30T17:04:27.656Z,98860.47
2018-06-30T17:06:56.999Z,98865.59
2018-06-30T17:09:26.596Z,98864.61
2018-06-30T17:11:56.185Z,98868.48
2018-06-30T17:14:26.158Z,98867.58
2018-06-30T17:16:55.493Z,98864.55
2018-06-30T17:19:25.416Z,98861.53
2018-06-30T17:21:55.530Z,98866.23
2018-06-30T17:24:24.894Z,98864.77
2018-06-30T17:26:54.642Z,98862.71
2018-06-30T17:29:24.012Z,98863.12
2018-06-30T17:31:53.417Z,98859.88
2018-06-30T17:34:22.829Z,98866.17
2018-06-30T17:36:52.731Z,98862.09
2018-06-30T17:39:22.674Z,98860.72
2018-06-30T17:41:53.454Z,98862.86
2018-06-30T17:44:22.940Z,98866.37
2018-06-30T17:46:52.541Z,98865.24
2018-06-30T17:49:22.314Z,98867.37
2018-06-30T17:51:52.011Z,98864.72
2018-06-30T17:54:21.697Z,98874.48
2018-06-30T17:56:51.488Z,98871.05
2018-06-30T17:59:20.842Z,98860.56
2018-06-30T18:01:50.214Z,98866.98
2018-06-30T18:04:19.912Z,98873.75
2018-06-30T18:06:49.495Z,98862.47
2018-06-30T18:09:20.371Z,98872.53
2018-06-30T18:11:49.733Z,98871.70
2018-06-30T18:14:19.941Z,98873.77
2018-06-30T18:16:49.268Z,98874.03
2018-06-30T18:19:18.984Z,98873.31
2018-06-30T18:21:49.192Z,98877.25
2018-06-30T18:24:18.936Z,98881.48
2018-06-30T18:26:48.248Z,98876.43
2018-06-30T18:29:17.602Z,98884.25
2018-06-30T18:31:47.769Z,98884.05
2018-06-30T18:34:17.892Z,98881.56
2018-06-30T18:36:47.543Z,98886.52
2018-06-30T18:39:17.645Z,98890.56
2018-06-30T18:41:47.013Z,98892.67
2018-06-30T18:44:16.344Z,98886.00
2018-06-30T18:46:45.788Z,98893.45
2018-06-30T18:49:15.455Z,98890.40
2018-06-30T18:51:44.818Z,98896.78
2018-06-30T18:54:14.193Z,98901.09
2018-06-30T18:56:43.972Z,98902.95
2018-06-30T18:59:14.184Z,98899.58
2018-06-30T19:01:43.592Z,98897.31
2018-06-30T19:04:13.089Z,98899.83
2018-06-30T19:06:42.464Z,98900.09
2018-06-30T19:09:11.917Z,98895.08
2018-06-30T19:11:41.577Z,98900.52
2018-06-30T19:14:10.918Z,98900.72
2018-06-30T19:16:40.574Z,98900.48
2018-06-30T19:19:10.274Z,98904.42
2018-06-30T19:21:40.278Z,98907.77
2018-06-30T19:24:11.308Z,98908.60
2018-06-30T19:26:40.741Z,98908.56
2018-06-30T19:29:10.929Z,98916.58
2018-06-30T19:31:40.323Z,98913.99
2018-06-30T19:34:09.648Z,98916.34
2018-06-30T19:36:39.422Z,98919.81
2018-06-30T19:39:10.819Z,98920.61
2018-06-30T19:41:40.432Z,98923.35
2018-06-30T19:44:10.635Z,98931.33
2018-06-30T19:46:40.077Z,98928.09
2018-06-30T19:49:09.382Z,98934.80
2018-06-30T19:51:38.712Z,98937.86
2018-06-30T19:54:08.435Z,98940.78
2018-06-30T19:56:38.121Z,98940.64
2018-06-30T19:59:08.359Z,98950.34
2018-06-30T20:01:38.097Z,98949.48
2018-06-30T20:04:07.668Z,98953.41
2018-06-30T20:06:37.332Z,98951.59
2018-06-30T20:09:08.828Z,98952.11
2018-06-30T20:11:38.227Z,98962.95
2018-06-30T20:14:07.667Z,98957.82
2018-06-30T20:16:37.029Z,98964.66
2018-06-30T20:19:06.434Z,98963.90
2018-06-30T20:21:35.861Z,98966.35
2018-06-30T20:24:06.172Z,98975.02
2018-06-30T20:26:35.457Z,98974.18
2018-06-30T20:29:05.379Z,98973.70
2018-06-30T20:31:34.965Z,98979.84
2018-06-30T20:34:04.330Z,98973.53
2018-06-30T20:36:33.968Z,98977.93
2018-06-30T20:39:03.949Z,98984.23
2018-06-30T20:41:33.347Z,98987.44
2018-06-30T20:44:03.490Z,98985.39
2018-06-30T20:46:32.813Z,98986.44
2018-06-30T20:49:02.171Z,98986.47
2018-06-30T20:51:32.305Z,98988.19
2018-06-30T20:54:02.197Z,98986.84
2018-06-30T20:56:31.978Z,98993.91
2018-06-30T20:59:03.370Z,98996.27
2018-06-30T21:01:33.300Z,99002.68
2018-06-30T21:04:03.558Z,99003.15
2018-06-30T21:06:32.949Z,98998.45
2018-06-30T21:09:02.865Z,98999.77
2018-06-30T21:11:32.185Z,99005.19
2018-06-30T21:14:01.530Z,99015.94
2018-06-30T21:16:30.866Z,99013.09
2018-06-30T21:19:00.201Z,99014.91
2018-06-30T21:21:29.877Z,99021.30
2018-06-30T21:23:59.232Z,99019.42
2018-06-30T21:26:28.575Z,99015.22
2018-06-30T21:28:58.724Z,99022.38
2018-06-30T21:31:28.438Z,99017.69
2018-06-30T21:33:58.120Z,99021.56
2018-06-30T21:36:27.501Z,99024.25
2018-06-30T21:38:56.858Z,99028.59
2018-06-30T21:41:26.360Z,99031.34
2018-06-30T21:43:56.677Z,99038.61
2018-06-30T21:46:26.380Z,99034.20
2018-06-30T21:48:56.555Z,99035.28
2018-06-30T21:51:26.262Z,99041.21
2018-06-30T21:53:55.968Z,99031.98
2018-06-30T21:56:26.193Z,99038.86
2018-06-30T21:58:56.048Z,99039.88
2018-06-30T22:01:26.723Z,99036.92
2018-06-30T22:03:57.439Z,99040.22
2018-06-30T22:06:26.816Z,99043.23
2018-06-30T22:08:56.168Z,99044.06
2018-06-30T22:11:26.478Z,99042.63
2018-06-30T22:13:56.022Z,99052.30
2018-06-30T22:16:25.416Z,99046.94
2018-06-30T22:18:55.093Z,99057.25
2018-06-30T22:21:24.725Z,99052.04
2018-06-30T22:23:54.305Z,99052.47
2018-06-30T22:26:24.653Z,99059.80
2018-06-30T22:28:53.952Z,99062.48
2018-06-30T22:31:23.589Z,99060.20
2018-06-30T22:33:53.255Z,99061.87
2018-06-30T22:36:22.628Z,99057.97
2018-06-30T22:38:52.638Z,99067.17
2018-06-30T22:41:22.315Z,99067.28
2018-06-30T22:43:51.740Z,99071.15
2018-06-30T22:46:21.135Z,99071.30
2018-06-30T22:48:50.497Z,99076.04
2018-06-30T22:51:20.336Z,99081.41
2018-06-30T22:53:49.685Z,99081.55
2018-06-30T22:56:19.108Z,99076.84
2018-06-30T22:58:48.710Z,99083.38
2018-06-30T23:01:18.074Z,99077.67
2018-06-30T23:03:47.451Z,99079.94
2018-06-30T23:06:17.004Z,99085.88
2018-06-30T23:08:52.349Z,99083.54
2018-06-30T23:11:22.686Z,99086.44
2018-06-30T23:13:52.721Z,99086.83
2018-06-30T23:16:23.016Z,99091.15
2018-06-30T23:18:52.626Z,99087.56
2018-06-30T23:21:21.960Z,99091.28
2018-06-30T23:23:51.323Z,99087.22
2018-06-30T23:26:27.364Z,99096.11
2018-06-30T23:28:56.704Z,99097.51
2018-06-30T23:31:26.033Z,99092.34
2018-06-30T23:33:55.392Z,99094.43
2018-06-30T23:36:24.735Z,99095.38
2018-06-30T23:38:54.367Z,99097.32
2018-06-30T23:41:24.088Z,99098.64
2018-06-30T23:43:54.456Z,99094.80
2018-06-30T23:46:23.807Z,99090.77
2018-06-30T23:48:53.125Z,99090.95
2018-06-30T23:51:22.822Z,99092.10
2018-06-30T23:53:52.505Z,99089.95
2018-06-30T23:56:22.616Z,99089.61
2018-06-30T23:58:53.349Z,99085.36
